sensor_id;sensor_type;location;lat;lon;timestamp;P1;durP1;ratioP1;P2;durP2;ratioP2
34212;SDS011;20477;51.390;8.102;2023-06-22T00:01:30;17.20;;;10.73;;
34212;SDS011;20477;51.390;8.102;2023-06-22T00:03:59;13.32;;;10.73;;
34212;SDS011;20477;51.390;8.102;2023-06-22T00:06:27;13.27;;;11.10;;
34212;SDS011;20477;51.390;8.102;2023-06-22T00:08:56;14.50;;;11.50;;
34212;SDS011;20477;51.390;8.102;2023-06-22T00:11:24;14.57;;;12.07;;
34212;SDS011;20477;51.390;8.102;2023-06-22T00:13:57;17.50;;;12.38;;
34212;SDS011;20477;51.390;8.102;2023-06-22T00:16:28;18.77;;;12.70;;
34212;SDS011;20477;51.390;8.102;2023-06-22T00:18:56;16.42;;;13.43;;
34212;SDS011;20477;51.390;8.102;2023-06-22T00:21:30;18.20;;;11.95;;
34212;SDS011;20477;51.390;8.102;2023-06-22T00:24:01;17.08;;;14.43;;
34212;SDS011;20477;51.390;8.102;2023-06-22T00:26:30;20.58;;;13.27;;
34212;SDS011;20477;51.390;8.102;2023-06-22T00:29:00;15.93;;;12.43;;
34212;SDS011;20477;51.390;8.102;2023-06-22T00:31:29;18.05;;;12.77;;
34212;SDS011;20477;51.390;8.102;2023-06-22T00:33:58;18.63;;;13.80;;
34212;SDS011;20477;51.390;8.102;2023-06-22T00:36:29;13.20;;;11.90;;
34212;SDS011;20477;51.390;8.102;2023-06-22T00:39:02;19.65;;;12.73;;
34212;SDS011;20477;51.390;8.102;2023-06-22T00:41:34;14.90;;;11.67;;
34212;SDS011;20477;51.390;8.102;2023-06-22T00:44:05;14.73;;;13.25;;
34212;SDS011;20477;51.390;8.102;2023-06-22T00:46:35;17.55;;;12.88;;
34212;SDS011;20477;51.390;8.102;2023-06-22T00:49:06;18.80;;;14.52;;
34212;SDS011;20477;51.390;8.102;2023-06-22T00:51:35;15.77;;;13.90;;
34212;SDS011;20477;51.390;8.102;2023-06-22T00:54:06;15.13;;;13.57;;
34212;SDS011;20477;51.390;8.102;2023-06-22T00:56:34;17.45;;;13.40;;
34212;SDS011;20477;51.390;8.102;2023-06-22T00:59:06;17.90;;;13.23;;
34212;SDS011;20477;51.390;8.102;2023-06-22T01:01:41;14.27;;;12.23;;
34212;SDS011;20477;51.390;8.102;2023-06-22T01:04:13;13.48;;;12.13;;
34212;SDS011;20477;51.390;8.102;2023-06-22T01:06:44;15.45;;;13.27;;
34212;SDS011;20477;51.390;8.102;2023-06-22T01:09:15;21.05;;;13.95;;
34212;SDS011;20477;51.390;8.102;2023-06-22T01:11:52;16.02;;;12.55;;
34212;SDS011;20477;51.390;8.102;2023-06-22T01:14:31;15.52;;;12.90;;
34212;SDS011;20477;51.390;8.102;2023-06-22T01:17:04;19.25;;;13.50;;
34212;SDS011;20477;51.390;8.102;2023-06-22T01:19:35;17.15;;;12.23;;
34212;SDS011;20477;51.390;8.102;2023-06-22T01:22:08;12.55;;;11.32;;
34212;SDS011;20477;51.390;8.102;2023-06-22T01:24:45;15.40;;;12.32;;
34212;SDS011;20477;51.390;8.102;2023-06-22T01:27:32;15.07;;;11.90;;
34212;SDS011;20477;51.390;8.102;2023-06-22T01:30:12;15.88;;;12.93;;
34212;SDS011;20477;51.390;8.102;2023-06-22T01:32:42;16.20;;;13.18;;
34212;SDS011;20477;51.390;8.102;2023-06-22T01:35:11;15.80;;;13.02;;
34212;SDS011;20477;51.390;8.102;2023-06-22T01:37:40;14.52;;;13.07;;
34212;SDS011;20477;51.390;8.102;2023-06-22T01:40:09;22.67;;;13.18;;
34212;SDS011;20477;51.390;8.102;2023-06-22T01:42:38;22.45;;;14.30;;
34212;SDS011;20477;51.390;8.102;2023-06-22T01:45:14;20.27;;;15.32;;
34212;SDS011;20477;51.390;8.102;2023-06-22T01:47:43;18.38;;;14.68;;
34212;SDS011;20477;51.390;8.102;2023-06-22T01:50:12;24.20;;;13.85;;
34212;SDS011;20477;51.390;8.102;2023-06-22T01:52:41;23.25;;;15.27;;
34212;SDS011;20477;51.390;8.102;2023-06-22T01:55:09;15.98;;;14.07;;
34212;SDS011;20477;51.390;8.102;2023-06-22T01:57:38;20.52;;;15.40;;
34212;SDS011;20477;51.390;8.102;2023-06-22T02:00:11;17.25;;;15.27;;
34212;SDS011;20477;51.390;8.102;2023-06-22T02:02:59;20.85;;;16.17;;
34212;SDS011;20477;51.390;8.102;2023-06-22T02:05:33;19.27;;;15.13;;
34212;SDS011;20477;51.390;8.102;2023-06-22T02:08:13;18.05;;;16.15;;
34212;SDS011;20477;51.390;8.102;2023-06-22T02:10:57;20.98;;;14.98;;
34212;SDS011;20477;51.390;8.102;2023-06-22T02:13:30;19.15;;;15.13;;
34212;SDS011;20477;51.390;8.102;2023-06-22T02:16:03;23.55;;;15.82;;
34212;SDS011;20477;51.390;8.102;2023-06-22T02:18:36;21.63;;;15.38;;
34212;SDS011;20477;51.390;8.102;2023-06-22T02:21:08;23.98;;;15.25;;
34212;SDS011;20477;51.390;8.102;2023-06-22T02:23:55;18.25;;;15.73;;
34212;SDS011;20477;51.390;8.102;2023-06-22T02:26:35;19.02;;;16.10;;
34212;SDS011;20477;51.390;8.102;2023-06-22T02:29:06;29.45;;;16.45;;
34212;SDS011;20477;51.390;8.102;2023-06-22T02:31:36;20.30;;;14.90;;
34212;SDS011;20477;51.390;8.102;2023-06-22T02:34:06;23.58;;;16.35;;
34212;SDS011;20477;51.390;8.102;2023-06-22T02:36:36;20.88;;;15.30;;
34212;SDS011;20477;51.390;8.102;2023-06-22T02:39:05;17.08;;;15.27;;
34212;SDS011;20477;51.390;8.102;2023-06-22T02:41:34;16.80;;;14.75;;
34212;SDS011;20477;51.390;8.102;2023-06-22T02:46:38;16.05;;;14.35;;
34212;SDS011;20477;51.390;8.102;2023-06-22T02:49:09;20.52;;;15.23;;
34212;SDS011;20477;51.390;8.102;2023-06-22T02:51:42;24.83;;;16.02;;
34212;SDS011;20477;51.390;8.102;2023-06-22T02:54:13;19.45;;;16.02;;
34212;SDS011;20477;51.390;8.102;2023-06-22T02:56:43;19.67;;;15.57;;
34212;SDS011;20477;51.390;8.102;2023-06-22T02:59:11;18.58;;;13.15;;
34212;SDS011;20477;51.390;8.102;2023-06-22T03:01:42;19.80;;;14.35;;
34212;SDS011;20477;51.390;8.102;2023-06-22T03:04:13;17.20;;;13.88;;
34212;SDS011;20477;51.390;8.102;2023-06-22T03:06:44;23.40;;;14.65;;
34212;SDS011;20477;51.390;8.102;2023-06-22T03:09:18;21.88;;;15.52;;
34212;SDS011;20477;51.390;8.102;2023-06-22T03:11:46;21.80;;;15.27;;
34212;SDS011;20477;51.390;8.102;2023-06-22T03:14:15;22.23;;;16.77;;
34212;SDS011;20477;51.390;8.102;2023-06-22T03:16:47;20.17;;;17.35;;
34212;SDS011;20477;51.390;8.102;2023-06-22T03:19:16;25.42;;;17.15;;
34212;SDS011;20477;51.390;8.102;2023-06-22T03:21:46;27.17;;;16.52;;
34212;SDS011;20477;51.390;8.102;2023-06-22T03:24:14;22.67;;;16.15;;
34212;SDS011;20477;51.390;8.102;2023-06-22T03:26:43;20.48;;;14.80;;
34212;SDS011;20477;51.390;8.102;2023-06-22T03:29:13;17.15;;;15.35;;
34212;SDS011;20477;51.390;8.102;2023-06-22T03:31:43;19.73;;;14.40;;
34212;SDS011;20477;51.390;8.102;2023-06-22T03:34:16;19.70;;;14.82;;
34212;SDS011;20477;51.390;8.102;2023-06-22T03:36:44;19.35;;;14.60;;
34212;SDS011;20477;51.390;8.102;2023-06-22T03:39:13;17.60;;;15.70;;
34212;SDS011;20477;51.390;8.102;2023-06-22T03:41:42;19.10;;;14.98;;
34212;SDS011;20477;51.390;8.102;2023-06-22T03:44:10;22.23;;;16.58;;
34212;SDS011;20477;51.390;8.102;2023-06-22T03:46:39;26.17;;;15.82;;
34212;SDS011;20477;51.390;8.102;2023-06-22T03:49:13;22.50;;;16.77;;
34212;SDS011;20477;51.390;8.102;2023-06-22T03:51:43;21.15;;;16.25;;
34212;SDS011;20477;51.390;8.102;2023-06-22T03:54:11;22.75;;;15.68;;
34212;SDS011;20477;51.390;8.102;2023-06-22T03:56:40;18.58;;;16.58;;
34212;SDS011;20477;51.390;8.102;2023-06-22T03:59:09;20.30;;;16.33;;
34212;SDS011;20477;51.390;8.102;2023-06-22T04:01:37;18.92;;;16.90;;
34212;SDS011;20477;51.390;8.102;2023-06-22T04:04:06;18.77;;;16.45;;
34212;SDS011;20477;51.390;8.102;2023-06-22T04:06:34;26.52;;;17.17;;
34212;SDS011;20477;51.390;8.102;2023-06-22T04:09:05;22.73;;;17.17;;
34212;SDS011;20477;51.390;8.102;2023-06-22T04:11:35;21.53;;;16.40;;
34212;SDS011;20477;51.390;8.102;2023-06-22T04:14:04;20.10;;;17.45;;
34212;SDS011;20477;51.390;8.102;2023-06-22T04:16:32;24.42;;;19.35;;
34212;SDS011;20477;51.390;8.102;2023-06-22T04:19:01;19.90;;;17.88;;
34212;SDS011;20477;51.390;8.102;2023-06-22T04:21:30;28.30;;;19.85;;
34212;SDS011;20477;51.390;8.102;2023-06-22T04:23:59;21.75;;;19.45;;
34212;SDS011;20477;51.390;8.102;2023-06-22T04:26:29;21.88;;;19.48;;
34212;SDS011;20477;51.390;8.102;2023-06-22T04:29:03;20.98;;;18.42;;
34212;SDS011;20477;51.390;8.102;2023-06-22T04:31:32;26.52;;;19.40;;
34212;SDS011;20477;51.390;8.102;2023-06-22T04:34:03;24.42;;;17.55;;
34212;SDS011;20477;51.390;8.102;2023-06-22T04:36:34;26.58;;;18.88;;
34212;SDS011;20477;51.390;8.102;2023-06-22T04:39:14;21.85;;;18.65;;
34212;SDS011;20477;51.390;8.102;2023-06-22T04:41:58;23.30;;;19.60;;
34212;SDS011;20477;51.390;8.102;2023-06-22T04:44:32;23.42;;;20.02;;
34212;SDS011;20477;51.390;8.102;2023-06-22T04:47:03;25.35;;;20.67;;
34212;SDS011;20477;51.390;8.102;2023-06-22T04:49:35;25.85;;;19.80;;
34212;SDS011;20477;51.390;8.102;2023-06-22T04:52:14;27.48;;;19.38;;
34212;SDS011;20477;51.390;8.102;2023-06-22T04:54:46;26.42;;;19.20;;
34212;SDS011;20477;51.390;8.102;2023-06-22T04:57:28;23.05;;;19.58;;
34212;SDS011;20477;51.390;8.102;2023-06-22T05:00:18;21.00;;;18.25;;
34212;SDS011;20477;51.390;8.102;2023-06-22T05:02:52;22.52;;;19.08;;
34212;SDS011;20477;51.390;8.102;2023-06-22T05:05:32;23.38;;;18.75;;
34212;SDS011;20477;51.390;8.102;2023-06-22T05:08:04;24.90;;;18.13;;
34212;SDS011;20477;51.390;8.102;2023-06-22T05:10:38;23.38;;;17.08;;
34212;SDS011;20477;51.390;8.102;2023-06-22T05:13:31;20.13;;;16.25;;
34212;SDS011;20477;51.390;8.102;2023-06-22T05:16:02;20.00;;;16.65;;
34212;SDS011;20477;51.390;8.102;2023-06-22T05:18:35;20.02;;;17.40;;
34212;SDS011;20477;51.390;8.102;2023-06-22T05:24:22;29.27;;;20.98;;
34212;SDS011;20477;51.390;8.102;2023-06-22T05:26:51;32.20;;;22.23;;
34212;SDS011;20477;51.390;8.102;2023-06-22T05:29:21;28.75;;;22.08;;
34212;SDS011;20477;51.390;8.102;2023-06-22T05:31:49;26.60;;;23.35;;
34212;SDS011;20477;51.390;8.102;2023-06-22T05:34:20;29.95;;;23.73;;
34212;SDS011;20477;51.390;8.102;2023-06-22T05:36:49;27.70;;;23.88;;
34212;SDS011;20477;51.390;8.102;2023-06-22T05:39:17;28.50;;;23.85;;
34212;SDS011;20477;51.390;8.102;2023-06-22T05:41:46;35.28;;;24.35;;
34212;SDS011;20477;51.390;8.102;2023-06-22T05:44:14;28.85;;;25.23;;
34212;SDS011;20477;51.390;8.102;2023-06-22T05:46:46;38.78;;;25.42;;
34212;SDS011;20477;51.390;8.102;2023-06-22T05:49:19;31.95;;;25.20;;
34212;SDS011;20477;51.390;8.102;2023-06-22T05:51:49;26.92;;;24.02;;
34212;SDS011;20477;51.390;8.102;2023-06-22T05:54:18;28.35;;;24.88;;
34212;SDS011;20477;51.390;8.102;2023-06-22T05:56:47;28.98;;;24.15;;
34212;SDS011;20477;51.390;8.102;2023-06-22T05:59:15;28.10;;;25.15;;
34212;SDS011;20477;51.390;8.102;2023-06-22T06:01:44;28.35;;;25.00;;
34212;SDS011;20477;51.390;8.102;2023-06-22T06:04:16;26.60;;;23.58;;
34212;SDS011;20477;51.390;8.102;2023-06-22T06:06:45;26.77;;;24.08;;
34212;SDS011;20477;51.390;8.102;2023-06-22T06:09:14;28.55;;;23.73;;
34212;SDS011;20477;51.390;8.102;2023-06-22T06:11:43;31.75;;;23.45;;
34212;SDS011;20477;51.390;8.102;2023-06-22T06:14:11;28.55;;;22.73;;
34212;SDS011;20477;51.390;8.102;2023-06-22T06:16:39;30.55;;;21.67;;
34212;SDS011;20477;51.390;8.102;2023-06-22T06:19:09;29.88;;;23.67;;
34212;SDS011;20477;51.390;8.102;2023-06-22T06:21:37;25.60;;;22.10;;
34212;SDS011;20477;51.390;8.102;2023-06-22T06:24:06;26.15;;;21.10;;
34212;SDS011;20477;51.390;8.102;2023-06-22T06:26:36;25.13;;;22.15;;
34212;SDS011;20477;51.390;8.102;2023-06-22T06:29:09;26.70;;;20.90;;
34212;SDS011;20477;51.390;8.102;2023-06-22T06:31:39;30.77;;;22.35;;
34212;SDS011;20477;51.390;8.102;2023-06-22T06:34:12;22.80;;;20.02;;
34212;SDS011;20477;51.390;8.102;2023-06-22T06:36:40;22.38;;;19.95;;
34212;SDS011;20477;51.390;8.102;2023-06-22T06:39:08;27.95;;;19.00;;
34212;SDS011;20477;51.390;8.102;2023-06-22T06:41:42;22.67;;;20.27;;
34212;SDS011;20477;51.390;8.102;2023-06-22T06:44:10;20.08;;;17.70;;
34212;SDS011;20477;51.390;8.102;2023-06-22T06:46:39;26.42;;;19.90;;
34212;SDS011;20477;51.390;8.102;2023-06-22T06:49:15;25.13;;;20.30;;
34212;SDS011;20477;51.390;8.102;2023-06-22T06:51:47;24.95;;;21.58;;
34212;SDS011;20477;51.390;8.102;2023-06-22T06:54:21;25.67;;;22.15;;
34212;SDS011;20477;51.390;8.102;2023-06-22T06:56:49;23.35;;;19.80;;
34212;SDS011;20477;51.390;8.102;2023-06-22T06:59:18;23.95;;;20.15;;
34212;SDS011;20477;51.390;8.102;2023-06-22T07:01:49;24.15;;;19.73;;
34212;SDS011;20477;51.390;8.102;2023-06-22T07:04:21;23.25;;;18.40;;
34212;SDS011;20477;51.390;8.102;2023-06-22T07:06:52;18.58;;;16.77;;
34212;SDS011;20477;51.390;8.102;2023-06-22T07:09:20;22.08;;;17.38;;
34212;SDS011;20477;51.390;8.102;2023-06-22T07:11:48;19.30;;;15.60;;
34212;SDS011;20477;51.390;8.102;2023-06-22T07:14:17;17.23;;;13.57;;
34212;SDS011;20477;51.390;8.102;2023-06-22T07:16:45;16.20;;;13.80;;
34212;SDS011;20477;51.390;8.102;2023-06-22T07:19:14;16.98;;;11.38;;
34212;SDS011;20477;51.390;8.102;2023-06-22T07:21:50;12.27;;;11.15;;
34212;SDS011;20477;51.390;8.102;2023-06-22T07:24:20;11.63;;;10.50;;
34212;SDS011;20477;51.390;8.102;2023-06-22T07:26:49;13.98;;;11.10;;
34212;SDS011;20477;51.390;8.102;2023-06-22T07:29:18;12.63;;;10.60;;
34212;SDS011;20477;51.390;8.102;2023-06-22T07:31:47;16.38;;;12.13;;
34212;SDS011;20477;51.390;8.102;2023-06-22T07:34:16;11.07;;;9.68;;
34212;SDS011;20477;51.390;8.102;2023-06-22T07:36:45;13.68;;;9.95;;
34212;SDS011;20477;51.390;8.102;2023-06-22T07:39:15;12.45;;;9.90;;
34212;SDS011;20477;51.390;8.102;2023-06-22T07:41:43;11.77;;;10.35;;
34212;SDS011;20477;51.390;8.102;2023-06-22T07:44:11;12.57;;;10.55;;
34212;SDS011;20477;51.390;8.102;2023-06-22T07:46:40;11.75;;;10.52;;
34212;SDS011;20477;51.390;8.102;2023-06-22T07:49:08;15.00;;;10.88;;
34212;SDS011;20477;51.390;8.102;2023-06-22T07:51:36;11.55;;;10.02;;
34212;SDS011;20477;51.390;8.102;2023-06-22T07:54:04;11.73;;;9.50;;
34212;SDS011;20477;51.390;8.102;2023-06-22T07:56:35;13.27;;;9.98;;
34212;SDS011;20477;51.390;8.102;2023-06-22T07:59:04;12.85;;;9.73;;
34212;SDS011;20477;51.390;8.102;2023-06-22T08:01:32;12.45;;;10.20;;
34212;SDS011;20477;51.390;8.102;2023-06-22T08:04:00;12.52;;;9.35;;
34212;SDS011;20477;51.390;8.102;2023-06-22T08:06:29;15.57;;;10.10;;
34212;SDS011;20477;51.390;8.102;2023-06-22T08:08:58;15.20;;;10.07;;
34212;SDS011;20477;51.390;8.102;2023-06-22T08:11:26;12.57;;;9.25;;
34212;SDS011;20477;51.390;8.102;2023-06-22T08:13:56;12.15;;;10.30;;
34212;SDS011;20477;51.390;8.102;2023-06-22T08:16:25;11.55;;;9.07;;
34212;SDS011;20477;51.390;8.102;2023-06-22T08:18:53;16.75;;;10.00;;
34212;SDS011;20477;51.390;8.102;2023-06-22T08:21:22;11.15;;;9.30;;
34212;SDS011;20477;51.390;8.102;2023-06-22T08:23:50;9.77;;;8.63;;
34212;SDS011;20477;51.390;8.102;2023-06-22T08:26:18;10.05;;;8.65;;
34212;SDS011;20477;51.390;8.102;2023-06-22T08:28:48;13.93;;;9.63;;
34212;SDS011;20477;51.390;8.102;2023-06-22T08:31:17;11.98;;;9.13;;
34212;SDS011;20477;51.390;8.102;2023-06-22T08:33:46;12.45;;;8.70;;
34212;SDS011;20477;51.390;8.102;2023-06-22T08:36:15;12.82;;;9.80;;
34212;SDS011;20477;51.390;8.102;2023-06-22T08:38:44;10.70;;;8.68;;
34212;SDS011;20477;51.390;8.102;2023-06-22T08:41:16;13.63;;;8.82;;
34212;SDS011;20477;51.390;8.102;2023-06-22T08:43:45;11.25;;;8.85;;
34212;SDS011;20477;51.390;8.102;2023-06-22T08:46:13;12.48;;;9.10;;
34212;SDS011;20477;51.390;8.102;2023-06-22T08:51:16;10.20;;;9.10;;
34212;SDS011;20477;51.390;8.102;2023-06-22T08:53:45;13.43;;;9.30;;
34212;SDS011;20477;51.390;8.102;2023-06-22T08:56:13;10.85;;;9.75;;
34212;SDS011;20477;51.390;8.102;2023-06-22T08:58:41;10.93;;;9.82;;
34212;SDS011;20477;51.390;8.102;2023-06-22T09:01:10;12.60;;;10.48;;
34212;SDS011;20477;51.390;8.102;2023-06-22T09:03:38;13.05;;;10.48;;
34212;SDS011;20477;51.390;8.102;2023-06-22T09:06:08;12.20;;;10.13;;
34212;SDS011;20477;51.390;8.102;2023-06-22T09:08:36;14.70;;;10.32;;
34212;SDS011;20477;51.390;8.102;2023-06-22T09:11:05;13.75;;;10.25;;
34212;SDS011;20477;51.390;8.102;2023-06-22T09:13:33;11.80;;;9.32;;
34212;SDS011;20477;51.390;8.102;2023-06-22T09:16:01;9.60;;;8.57;;
34212;SDS011;20477;51.390;8.102;2023-06-22T09:18:30;12.23;;;9.60;;
34212;SDS011;20477;51.390;8.102;2023-06-22T09:20:59;11.02;;;9.32;;
34212;SDS011;20477;51.390;8.102;2023-06-22T09:23:30;12.57;;;9.18;;
34212;SDS011;20477;51.390;8.102;2023-06-22T09:25:59;9.85;;;8.27;;
34212;SDS011;20477;51.390;8.102;2023-06-22T09:28:31;11.60;;;8.52;;
34212;SDS011;20477;51.390;8.102;2023-06-22T09:31:00;9.55;;;7.85;;
34212;SDS011;20477;51.390;8.102;2023-06-22T09:33:28;10.43;;;8.20;;
34212;SDS011;20477;51.390;8.102;2023-06-22T09:35:56;10.77;;;8.27;;
34212;SDS011;20477;51.390;8.102;2023-06-22T09:38:25;11.73;;;8.23;;
34212;SDS011;20477;51.390;8.102;2023-06-22T09:41:02;9.45;;;7.93;;
34212;SDS011;20477;51.390;8.102;2023-06-22T09:43:31;12.25;;;7.00;;
34212;SDS011;20477;51.390;8.102;2023-06-22T09:46:01;8.13;;;7.32;;
34212;SDS011;20477;51.390;8.102;2023-06-22T09:48:29;9.07;;;8.18;;
34212;SDS011;20477;51.390;8.102;2023-06-22T09:50:58;9.95;;;7.47;;
34212;SDS011;20477;51.390;8.102;2023-06-22T09:53:26;11.60;;;8.00;;
34212;SDS011;20477;51.390;8.102;2023-06-22T09:55:59;10.63;;;7.75;;
34212;SDS011;20477;51.390;8.102;2023-06-22T09:58:28;10.25;;;8.07;;
34212;SDS011;20477;51.390;8.102;2023-06-22T10:00:57;10.10;;;7.55;;
34212;SDS011;20477;51.390;8.102;2023-06-22T10:03:25;15.45;;;8.75;;
34212;SDS011;20477;51.390;8.102;2023-06-22T10:05:54;8.60;;;7.70;;
34212;SDS011;20477;51.390;8.102;2023-06-22T10:08:22;8.60;;;7.57;;
34212;SDS011;20477;51.390;8.102;2023-06-22T10:10:51;8.02;;;7.20;;
34212;SDS011;20477;51.390;8.102;2023-06-22T10:13:21;10.15;;;7.10;;
34212;SDS011;20477;51.390;8.102;2023-06-22T10:15:49;8.38;;;7.50;;
34212;SDS011;20477;51.390;8.102;2023-06-22T10:18:17;9.55;;;7.97;;
34212;SDS011;20477;51.390;8.102;2023-06-22T10:20:47;11.20;;;7.43;;
34212;SDS011;20477;51.390;8.102;2023-06-22T10:23:17;8.35;;;7.22;;
34212;SDS011;20477;51.390;8.102;2023-06-22T10:25:46;9.35;;;7.28;;
34212;SDS011;20477;51.390;8.102;2023-06-22T10:28:15;9.52;;;7.70;;
34212;SDS011;20477;51.390;8.102;2023-06-22T10:30:44;8.60;;;7.30;;
34212;SDS011;20477;51.390;8.102;2023-06-22T10:33:14;8.60;;;6.90;;
34212;SDS011;20477;51.390;8.102;2023-06-22T10:35:42;8.63;;;7.45;;
34212;SDS011;20477;51.390;8.102;2023-06-22T10:38:11;8.52;;;7.53;;
34212;SDS011;20477;51.390;8.102;2023-06-22T10:40:41;9.10;;;7.82;;
34212;SDS011;20477;51.390;8.102;2023-06-22T10:43:10;9.20;;;7.72;;
34212;SDS011;20477;51.390;8.102;2023-06-22T10:45:39;14.05;;;7.95;;
34212;SDS011;20477;51.390;8.102;2023-06-22T10:48:09;8.38;;;7.45;;
34212;SDS011;20477;51.390;8.102;2023-06-22T10:50:37;13.82;;;7.57;;
34212;SDS011;20477;51.390;8.102;2023-06-22T10:53:07;9.77;;;7.95;;
34212;SDS011;20477;51.390;8.102;2023-06-22T10:55:35;8.52;;;7.45;;
34212;SDS011;20477;51.390;8.102;2023-06-22T10:58:12;10.98;;;8.07;;
34212;SDS011;20477;51.390;8.102;2023-06-22T11:00:40;11.25;;;8.07;;
34212;SDS011;20477;51.390;8.102;2023-06-22T11:03:10;8.93;;;8.02;;
34212;SDS011;20477;51.390;8.102;2023-06-22T11:05:43;9.00;;;8.15;;
34212;SDS011;20477;51.390;8.102;2023-06-22T11:08:12;10.73;;;8.53;;
34212;SDS011;20477;51.390;8.102;2023-06-22T11:10:43;10.45;;;8.57;;
34212;SDS011;20477;51.390;8.102;2023-06-22T11:13:11;9.48;;;8.48;;
34212;SDS011;20477;51.390;8.102;2023-06-22T11:15:40;13.05;;;8.70;;
34212;SDS011;20477;51.390;8.102;2023-06-22T11:18:11;16.30;;;8.48;;
34212;SDS011;20477;51.390;8.102;2023-06-22T11:20:39;15.40;;;8.55;;
34212;SDS011;20477;51.390;8.102;2023-06-22T11:23:07;10.10;;;8.32;;
34212;SDS011;20477;51.390;8.102;2023-06-22T11:25:36;11.63;;;8.32;;
34212;SDS011;20477;51.390;8.102;2023-06-22T11:28:04;10.85;;;8.63;;
34212;SDS011;20477;51.390;8.102;2023-06-22T11:30:38;9.60;;;8.27;;
34212;SDS011;20477;51.390;8.102;2023-06-22T11:33:07;13.43;;;8.25;;
34212;SDS011;20477;51.390;8.102;2023-06-22T11:35:36;12.27;;;8.30;;
34212;SDS011;20477;51.390;8.102;2023-06-22T11:38:05;8.98;;;8.07;;
34212;SDS011;20477;51.390;8.102;2023-06-22T11:40:34;12.88;;;8.23;;
34212;SDS011;20477;51.390;8.102;2023-06-22T11:43:02;15.57;;;9.20;;
34212;SDS011;20477;51.390;8.102;2023-06-22T11:45:33;11.77;;;10.00;;
34212;SDS011;20477;51.390;8.102;2023-06-22T11:48:02;10.63;;;8.95;;
34212;SDS011;20477;51.390;8.102;2023-06-22T11:50:30;11.23;;;8.38;;
34212;SDS011;20477;51.390;8.102;2023-06-22T11:53:03;13.05;;;8.90;;
34212;SDS011;20477;51.390;8.102;2023-06-22T11:55:31;15.57;;;9.07;;
34212;SDS011;20477;51.390;8.102;2023-06-22T11:58:00;9.82;;;8.82;;
34212;SDS011;20477;51.390;8.102;2023-06-22T12:00:32;12.70;;;10.27;;
34212;SDS011;20477;51.390;8.102;2023-06-22T12:03:15;11.15;;;9.45;;
34212;SDS011;20477;51.390;8.102;2023-06-22T12:05:44;11.27;;;9.32;;
34212;SDS011;20477;51.390;8.102;2023-06-22T12:08:14;16.58;;;10.10;;
34212;SDS011;20477;51.390;8.102;2023-06-22T12:10:42;12.75;;;9.70;;
34212;SDS011;20477;51.390;8.102;2023-06-22T12:13:11;13.77;;;9.93;;
34212;SDS011;20477;51.390;8.102;2023-06-22T12:15:40;13.05;;;10.48;;
34212;SDS011;20477;51.390;8.102;2023-06-22T12:18:10;11.07;;;9.35;;
34212;SDS011;20477;51.390;8.102;2023-06-22T12:20:40;16.27;;;10.07;;
34212;SDS011;20477;51.390;8.102;2023-06-22T12:23:09;16.23;;;10.98;;
34212;SDS011;20477;51.390;8.102;2023-06-22T12:25:39;13.38;;;10.70;;
34212;SDS011;20477;51.390;8.102;2023-06-22T12:28:07;14.23;;;11.77;;
34212;SDS011;20477;51.390;8.102;2023-06-22T12:30:35;13.57;;;11.13;;
34212;SDS011;20477;51.390;8.102;2023-06-22T12:33:04;15.98;;;11.00;;
34212;SDS011;20477;51.390;8.102;2023-06-22T12:35:34;15.52;;;11.15;;
34212;SDS011;20477;51.390;8.102;2023-06-22T12:38:02;16.10;;;12.07;;
34212;SDS011;20477;51.390;8.102;2023-06-22T12:40:32;11.98;;;10.52;;
34212;SDS011;20477;51.390;8.102;2023-06-22T12:43:02;12.80;;;10.93;;
34212;SDS011;20477;51.390;8.102;2023-06-22T12:45:31;16.60;;;12.30;;
34212;SDS011;20477;51.390;8.102;2023-06-22T12:48:00;18.30;;;12.07;;
34212;SDS011;20477;51.390;8.102;2023-06-22T12:50:28;16.02;;;13.50;;
34212;SDS011;20477;51.390;8.102;2023-06-22T12:52:58;21.30;;;12.93;;
34212;SDS011;20477;51.390;8.102;2023-06-22T12:55:28;25.55;;;13.77;;
34212;SDS011;20477;51.390;8.102;2023-06-22T12:58:12;28.92;;;21.52;;
34212;SDS011;20477;51.390;8.102;2023-06-22T13:00:44;37.22;;;24.17;;
34212;SDS011;20477;51.390;8.102;2023-06-22T13:03:15;27.60;;;21.50;;
34212;SDS011;20477;51.390;8.102;2023-06-22T13:08:53;30.17;;;22.15;;
34212;SDS011;20477;51.390;8.102;2023-06-22T13:11:42;27.20;;;23.10;;
34212;SDS011;20477;51.390;8.102;2023-06-22T13:14:12;27.00;;;19.95;;
34212;SDS011;20477;51.390;8.102;2023-06-22T13:16:47;23.52;;;20.20;;
34212;SDS011;20477;51.390;8.102;2023-06-22T13:19:18;24.85;;;20.23;;
34212;SDS011;20477;51.390;8.102;2023-06-22T13:21:47;25.38;;;19.10;;
34212;SDS011;20477;51.390;8.102;2023-06-22T13:24:16;29.10;;;20.40;;
34212;SDS011;20477;51.390;8.102;2023-06-22T13:26:45;22.83;;;19.55;;
34212;SDS011;20477;51.390;8.102;2023-06-22T13:29:15;23.63;;;19.48;;
34212;SDS011;20477;51.390;8.102;2023-06-22T13:31:44;27.52;;;20.00;;
34212;SDS011;20477;51.390;8.102;2023-06-22T13:34:12;25.08;;;20.20;;
34212;SDS011;20477;51.390;8.102;2023-06-22T13:36:41;26.33;;;20.58;;
34212;SDS011;20477;51.390;8.102;2023-06-22T13:39:09;22.20;;;18.85;;
34212;SDS011;20477;51.390;8.102;2023-06-22T13:41:38;15.45;;;13.57;;
34212;SDS011;20477;51.390;8.102;2023-06-22T13:44:06;16.40;;;14.18;;
34212;SDS011;20477;51.390;8.102;2023-06-22T13:46:39;18.35;;;16.27;;
34212;SDS011;20477;51.390;8.102;2023-06-22T13:49:07;15.65;;;14.18;;
34212;SDS011;20477;51.390;8.102;2023-06-22T13:51:36;12.35;;;11.05;;
34212;SDS011;20477;51.390;8.102;2023-06-22T13:54:04;11.25;;;9.15;;
34212;SDS011;20477;51.390;8.102;2023-06-22T13:56:53;12.07;;;8.60;;
34212;SDS011;20477;51.390;8.102;2023-06-22T13:59:21;10.20;;;8.73;;
34212;SDS011;20477;51.390;8.102;2023-06-22T14:01:51;8.30;;;7.43;;
34212;SDS011;20477;51.390;8.102;2023-06-22T14:04:19;7.70;;;7.00;;
34212;SDS011;20477;51.390;8.102;2023-06-22T14:06:49;9.77;;;7.75;;
34212;SDS011;20477;51.390;8.102;2023-06-22T14:09:22;7.43;;;6.70;;
34212;SDS011;20477;51.390;8.102;2023-06-22T14:11:50;9.95;;;7.63;;
34212;SDS011;20477;51.390;8.102;2023-06-22T14:14:19;8.05;;;6.57;;
34212;SDS011;20477;51.390;8.102;2023-06-22T14:16:50;8.30;;;7.03;;
34212;SDS011;20477;51.390;8.102;2023-06-22T14:19:19;10.00;;;6.53;;
34212;SDS011;20477;51.390;8.102;2023-06-22T14:21:48;12.05;;;6.22;;
34212;SDS011;20477;51.390;8.102;2023-06-22T14:24:19;8.05;;;4.82;;
34212;SDS011;20477;51.390;8.102;2023-06-22T14:26:54;5.82;;;4.18;;
34212;SDS011;20477;51.390;8.102;2023-06-22T14:29:26;4.78;;;4.35;;
34212;SDS011;20477;51.390;8.102;2023-06-22T14:32:00;4.50;;;4.00;;
34212;SDS011;20477;51.390;8.102;2023-06-22T14:34:31;5.00;;;3.60;;
34212;SDS011;20477;51.390;8.102;2023-06-22T14:37:04;9.30;;;3.30;;
34212;SDS011;20477;51.390;8.102;2023-06-22T14:39:34;5.47;;;3.05;;
34212;SDS011;20477;51.390;8.102;2023-06-22T14:42:05;3.00;;;2.70;;
34212;SDS011;20477;51.390;8.102;2023-06-22T14:44:36;3.63;;;2.40;;
34212;SDS011;20477;51.390;8.102;2023-06-22T14:47:10;3.13;;;2.83;;
34212;SDS011;20477;51.390;8.102;2023-06-22T14:49:39;4.38;;;3.33;;
34212;SDS011;20477;51.390;8.102;2023-06-22T14:52:08;3.40;;;3.10;;
34212;SDS011;20477;51.390;8.102;2023-06-22T14:54:36;4.03;;;3.35;;
34212;SDS011;20477;51.390;8.102;2023-06-22T14:57:05;6.22;;;3.63;;
34212;SDS011;20477;51.390;8.102;2023-06-22T14:59:34;3.72;;;2.80;;